Time;durP1;ratioP1;P1;durP2;ratioP2;P2;SDS_P1;SDS_P2;PMS_P1;PMS_P2;Temp;Humidity;BMP_temperature;BMP_pressure;BME280_temperature;BME280_humidity;BME280_pressure;Samples;Min_cycle;Max_cycle;Signal;HPM_P1;HPM_P2
2023/07/13 00:01:57;;;;;;;6.43;5.45;;;;;;;;;;5013983;28;20034;-59
2023/07/13 00:04:27;;;;;;;7.38;6.22;;;;;;;;;;5014141;28;20121;-59
2023/07/13 00:06:52;;;;;;;7.70;6.70;;;;;;;;;;5014434;28;20156;-59
2023/07/13 00:09:18;;;;;;;7.85;6.55;;;;;;;;;;5014125;28;20046;-60
2023/07/13 00:11:44;;;;;;;8.32;6.20;;;;;;;;;;5014270;28;20038;-59
2023/07/13 00:14:10;;;;;;;6.95;6.20;;;;;;;;;;4996701;28;20115;-59
2023/07/13 00:16:36;;;;;;;7.50;6.32;;;;;;;;;;5014068;28;20058;-59
2023/07/13 00:19:02;;;;;;;8.07;6.07;;;;;;;;;;5014305;28;20034;-59
2023/07/13 00:21:27;;;;;;;8.63;6.63;;;;;;;;;;4996648;28;20045;-59
2023/07/13 00:23:53;;;;;;;6.13;5.53;;;;;;;;;;5013648;28;20453;-59
2023/07/13 00:26:18;;;;;;;6.32;5.20;;;;;;;;;;5013700;28;20041;-59
2023/07/13 00:28:44;;;;;;;6.88;6.13;;;;;;;;;;5014008;28;20026;-59
2023/07/13 00:31:10;;;;;;;7.93;5.63;;;;;;;;;;5013279;28;20461;-59
2023/07/13 00:33:36;;;;;;;6.10;5.57;;;;;;;;;;5014060;28;20041;-63
2023/07/13 00:36:02;;;;;;;6.72;6.07;;;;;;;;;;5013012;28;20037;-64
2023/07/13 00:38:27;;;;;;;7.88;5.78;;;;;;;;;;5013816;28;20453;-64
2023/07/13 00:40:53;;;;;;;6.30;5.55;;;;;;;;;;4996038;28;20453;-64
2023/07/13 00:43:20;;;;;;;6.93;6.03;;;;;;;;;;5013501;28;20030;-64
2023/07/13 00:45:45;;;;;;;7.90;6.43;;;;;;;;;;4979861;28;20030;-64
2023/07/13 00:48:12;;;;;;;6.10;4.93;;;;;;;;;;4996182;28;20488;-64
2023/07/13 00:50:38;;;;;;;8.23;5.65;;;;;;;;;;5013888;28;20034;-64
2023/07/13 00:53:04;;;;;;;6.70;5.15;;;;;;;;;;5013695;28;20480;-64
2023/07/13 00:55:29;;;;;;;6.57;5.75;;;;;;;;;;5014121;28;20034;-63
2023/07/13 00:57:55;;;;;;;7.80;6.00;;;;;;;;;;5013216;28;20469;-63
2023/07/13 01:00:21;;;;;;;7.32;6.68;;;;;;;;;;5013640;28;20028;-63
2023/07/13 01:02:47;;;;;;;8.10;6.25;;;;;;;;;;5013510;28;20036;-59
2023/07/13 01:05:14;;;;;;;11.23;7.85;;;;;;;;;;4979703;28;20049;-59
2023/07/13 01:07:41;;;;;;;8.25;6.63;;;;;;;;;;4996460;28;20026;-58
2023/07/13 01:10:06;;;;;;;7.25;6.28;;;;;;;;;;4999579;28;20041;-58
2023/07/13 01:12:32;;;;;;;8.38;5.78;;;;;;;;;;4983026;28;20022;-58
2023/07/13 01:14:58;;;;;;;5.72;5.22;;;;;;;;;;4998969;28;20029;-58
2023/07/13 01:17:24;;;;;;;5.50;5.03;;;;;;;;;;5032318;28;20068;-62
2023/07/13 01:19:49;;;;;;;7.00;6.22;;;;;;;;;;4999352;28;20060;-62
2023/07/13 01:22:15;;;;;;;7.63;6.32;;;;;;;;;;5016991;28;20062;-62
2023/07/13 01:24:42;;;;;;;7.40;6.72;;;;;;;;;;5016448;28;20030;-63
2023/07/13 01:27:08;;;;;;;6.93;6.22;;;;;;;;;;5016473;28;20374;-58
2023/07/13 01:29:35;;;;;;;5.80;5.30;;;;;;;;;;4999050;28;20036;-57
2023/07/13 01:32:00;;;;;;;6.35;5.85;;;;;;;;;;5016278;28;20080;-61
2023/07/13 01:34:26;;;;;;;6.32;5.82;;;;;;;;;;5031836;28;20126;-63
2023/07/13 01:36:53;;;;;;;7.68;6.32;;;;;;;;;;5016606;28;20049;-62
2023/07/13 01:39:20;;;;;;;7.10;6.30;;;;;;;;;;4999030;28;20517;-62
2023/07/13 01:41:46;;;;;;;6.55;5.88;;;;;;;;;;4998874;28;20499;-63
2023/07/13 01:44:11;;;;;;;6.80;5.78;;;;;;;;;;5016447;28;20010;-63
2023/07/13 01:46:37;;;;;;;6.90;5.78;;;;;;;;;;4998854;28;20453;-59
2023/07/13 01:49:02;;;;;;;5.32;4.82;;;;;;;;;;4999025;28;20033;-59
2023/07/13 01:51:27;;;;;;;5.70;5.10;;;;;;;;;;5016438;28;20030;-59
2023/07/13 01:53:53;;;;;;;6.32;5.72;;;;;;;;;;4998577;28;20026;-59
2023/07/13 01:56:18;;;;;;;7.07;6.38;;;;;;;;;;5015828;28;20574;-59
2023/07/13 01:58:45;;;;;;;5.50;5.00;;;;;;;;;;4998743;28;20026;-59
2023/07/13 02:01:10;;;;;;;6.57;5.80;;;;;;;;;;5015823;28;20156;-58
2023/07/13 02:03:36;;;;;;;6.70;5.65;;;;;;;;;;5016182;28;20450;-59
2023/07/13 02:06:01;;;;;;;6.15;5.32;;;;;;;;;;4998612;28;20041;-58
2023/07/13 02:08:27;;;;;;;6.60;5.25;;;;;;;;;;5015719;28;20030;-59
2023/07/13 02:10:52;;;;;;;6.30;4.97;;;;;;;;;;4998061;28;20033;-59
2023/07/13 02:13:17;;;;;;;8.65;6.68;;;;;;;;;;4997924;28;20038;-58
2023/07/13 02:15:43;;;;;;;7.10;6.35;;;;;;;;;;4998174;28;20033;-59
2023/07/13 02:18:08;;;;;;;5.57;5.13;;;;;;;;;;4998256;28;20461;-59
2023/07/13 02:20:34;;;;;;;8.00;5.50;;;;;;;;;;4997953;28;20057;-62
2023/07/13 02:22:59;;;;;;;5.63;5.13;;;;;;;;;;4997833;28;20092;-63
2023/07/13 02:25:26;;;;;;;8.30;5.28;;;;;;;;;;4998025;28;20045;-58
2023/07/13 02:27:52;;;;;;;6.10;5.47;;;;;;;;;;4998066;28;20121;-58
2023/07/13 02:30:17;;;;;;;6.50;5.90;;;;;;;;;;5015486;28;20045;-58
2023/07/13 02:32:44;;;;;;;7.15;5.22;;;;;;;;;;5015627;28;20429;-59
2023/07/13 02:35:10;;;;;;;5.63;5.05;;;;;;;;;;5015587;28;20113;-59
2023/07/13 02:37:36;;;;;;;6.63;5.93;;;;;;;;;;5015431;28;20040;-59
2023/07/13 02:40:08;;;;;;;7.35;6.07;;;;;;;;;;5015358;28;20472;-59
2023/07/13 02:42:34;;;;;;;7.45;6.65;;;;;;;;;;4997638;28;20120;-59
2023/07/13 02:45:00;;;;;;;6.85;6.18;;;;;;;;;;5015369;28;20054;-59
2023/07/13 02:47:26;;;;;;;6.40;5.82;;;;;;;;;;5015233;28;20054;-59
2023/07/13 02:49:52;;;;;;;7.88;6.07;;;;;;;;;;5030118;28;20010;-59
2023/07/13 02:52:17;;;;;;;7.20;6.35;;;;;;;;;;5029862;28;20037;-62
2023/07/13 02:54:42;;;;;;;7.00;6.32;;;;;;;;;;4997613;28;20041;-59
2023/07/13 02:57:08;;;;;;;7.93;7.05;;;;;;;;;;4997492;28;20065;-58
2023/07/13 02:59:33;;;;;;;7.95;7.25;;;;;;;;;;4998026;28;20025;-58
2023/07/13 03:02:00;;;;;;;7.82;7.13;;;;;;;;;;4997242;28;20034;-58
2023/07/13 03:04:27;;;;;;;9.50;8.50;;;;;;;;;;4997051;28;20025;-58
2023/07/13 03:06:52;;;;;;;14.18;12.77;;;;;;;;;;4997059;28;20057;-58
2023/07/13 03:09:17;;;;;;;11.43;10.32;;;;;;;;;;4996874;28;20041;-58
2023/07/13 03:11:48;;;;;;;11.88;9.50;;;;;;;;;;4997481;28;20092;-63
2023/07/13 03:14:22;;;;;;;10.45;9.25;;;;;;;;;;5014967;28;20372;-59
2023/07/13 03:16:47;;;;;;;8.45;7.65;;;;;;;;;;5014670;28;20088;-59
2023/07/13 03:19:13;;;;;;;8.00;6.40;;;;;;;;;;4997174;28;20057;-62
2023/07/13 03:21:41;;;;;;;10.75;8.80;;;;;;;;;;4996652;28;20033;-62
2023/07/13 03:24:07;;;;;;;10.68;8.50;;;;;;;;;;4996565;28;20026;-59
2023/07/13 03:26:32;;;;;;;9.20;8.30;;;;;;;;;;5014072;28;20042;-59
2023/07/13 03:28:58;;;;;;;9.40;8.43;;;;;;;;;;4996959;28;20113;-57
2023/07/13 03:31:26;;;;;;;9.63;8.73;;;;;;;;;;4995981;28;20469;-57
2023/07/13 03:33:52;;;;;;;9.50;8.50;;;;;;;;;;4996425;28;20033;-59
2023/07/13 03:36:19;;;;;;;7.63;6.82;;;;;;;;;;4996872;28;20495;-62
2023/07/13 03:38:49;;;;;;;7.55;6.85;;;;;;;;;;4996729;28;20507;-64
2023/07/13 03:41:17;;;;;;;6.65;6.10;;;;;;;;;;5013026;28;20026;-64
2023/07/13 03:43:45;;;;;;;7.47;6.78;;;;;;;;;;4996234;28;20057;-59
2023/07/13 03:46:11;;;;;;;7.80;7.03;;;;;;;;;;5029888;28;20484;-59
2023/07/13 03:48:36;;;;;;;7.88;6.35;;;;;;;;;;4996858;28;20034;-59
2023/07/13 03:51:01;;;;;;;8.80;7.53;;;;;;;;;;4996760;28;20475;-59
2023/07/13 03:53:28;;;;;;;8.48;7.57;;;;;;;;;;4996129;28;20030;-59
2023/07/13 03:55:53;;;;;;;7.55;6.78;;;;;;;;;;4996361;28;20028;-60
2023/07/13 03:58:26;;;;;;;10.35;7.55;;;;;;;;;;4996646;28;20468;-59
2023/07/13 04:00:52;;;;;;;8.73;7.00;;;;;;;;;;4996631;28;20040;-58
2023/07/13 04:03:17;;;;;;;7.53;6.90;;;;;;;;;;5013981;28;20100;-59
2023/07/13 04:05:42;;;;;;;8.00;7.28;;;;;;;;;;5014200;28;20034;-59
2023/07/13 04:08:11;;;;;;;8.20;7.47;;;;;;;;;;5013579;28;20026;-59
2023/07/13 04:10:37;;;;;;;8.35;7.10;;;;;;;;;;4996555;28;20032;-59
2023/07/13 04:13:02;;;;;;;8.27;6.85;;;;;;;;;;5013859;28;20025;-59
2023/07/13 04:15:31;;;;;;;8.10;7.28;;;;;;;;;;4996280;28;20041;-62
2023/07/13 04:17:56;;;;;;;8.23;7.40;;;;;;;;;;5012872;28;20053;-62
2023/07/13 04:20:22;;;;;;;7.72;6.90;;;;;;;;;;4995306;28;20030;-63
2023/07/13 04:22:47;;;;;;;6.25;5.75;;;;;;;;;;4995961;28;20026;-64
2023/07/13 04:25:13;;;;;;;7.50;6.55;;;;;;;;;;5013509;28;20030;-63
2023/07/13 04:27:39;;;;;;;6.63;6.03;;;;;;;;;;5014042;28;20374;-64
2023/07/13 04:30:05;;;;;;;8.00;6.68;;;;;;;;;;5013854;28;20034;-64
2023/07/13 04:32:31;;;;;;;7.43;6.72;;;;;;;;;;5013983;28;20055;-64
2023/07/13 04:34:59;;;;;;;9.32;7.30;;;;;;;;;;5013048;28;20354;-64
2023/07/13 04:37:24;;;;;;;8.75;6.43;;;;;;;;;;5012884;28;20034;-59
2023/07/13 04:39:50;;;;;;;7.60;6.72;;;;;;;;;;5012808;28;20028;-59
2023/07/13 04:42:15;;;;;;;7.20;6.35;;;;;;;;;;4995215;28;20038;-59
2023/07/13 04:44:40;;;;;;;7.10;6.40;;;;;;;;;;5016464;28;20432;-63
2023/07/13 04:47:06;;;;;;;6.43;5.65;;;;;;;;;;5016409;28;20030;-63
2023/07/13 04:49:31;;;;;;;6.80;6.20;;;;;;;;;;5016221;28;20697;-63
2023/07/13 04:51:56;;;;;;;6.18;5.68;;;;;;;;;;5016614;28;20385;-63
2023/07/13 04:54:22;;;;;;;6.43;5.88;;;;;;;;;;5016344;28;20034;-63
2023/07/13 04:56:47;;;;;;;7.45;6.82;;;;;;;;;;5016452;28;20036;-63
2023/07/13 04:59:12;;;;;;;8.68;6.35;;;;;;;;;;5016250;28;20137;-64
2023/07/13 05:01:38;;;;;;;7.10;6.40;;;;;;;;;;5016434;28;20478;-64
2023/07/13 05:04:04;;;;;;;7.32;6.13;;;;;;;;;;5016015;28;20421;-63
2023/07/13 05:06:30;;;;;;;7.38;6.50;;;;;;;;;;5016809;28;20058;-67
2023/07/13 05:08:56;;;;;;;7.05;6.35;;;;;;;;;;4999643;28;20021;-63
2023/07/13 05:11:21;;;;;;;11.65;6.78;;;;;;;;;;5016450;28;20483;-64
2023/07/13 05:13:47;;;;;;;8.10;5.90;;;;;;;;;;5020656;28;20030;-64
2023/07/13 05:16:12;;;;;;;9.15;7.00;;;;;;;;;;5017991;28;20549;-64
2023/07/13 05:18:38;;;;;;;6.63;6.10;;;;;;;;;;5034671;28;20644;-64
2023/07/13 05:21:05;;;;;;;8.13;6.63;;;;;;;;;;5034395;28;20026;-64
2023/07/13 05:23:32;;;;;;;6.93;6.32;;;;;;;;;;5035321;28;20491;-64
2023/07/13 05:25:58;;;;;;;7.80;7.05;;;;;;;;;;5034698;28;20044;-64
2023/07/13 05:28:24;;;;;;;9.88;6.18;;;;;;;;;;5017303;28;20457;-64
2023/07/13 05:30:49;;;;;;;6.82;6.15;;;;;;;;;;5034851;28;20075;-64
2023/07/13 05:33:15;;;;;;;8.77;6.40;;;;;;;;;;5036295;28;20388;-64
2023/07/13 05:35:40;;;;;;;6.97;6.18;;;;;;;;;;5036457;28;20472;-64
2023/07/13 05:38:06;;;;;;;10.52;7.10;;;;;;;;;;5036409;28;20036;-64
2023/07/13 05:40:31;;;;;;;10.18;6.47;;;;;;;;;;5049619;28;20064;-64
2023/07/13 05:42:56;;;;;;;9.38;6.57;;;;;;;;;;5015172;28;20032;-63
2023/07/13 05:45:22;;;;;;;7.55;6.70;;;;;;;;;;5033976;28;20112;-63
2023/07/13 05:47:48;;;;;;;11.27;6.97;;;;;;;;;;5034550;28;20021;-63
2023/07/13 05:50:13;;;;;;;8.65;6.07;;;;;;;;;;5034202;28;20144;-64
2023/07/13 05:52:38;;;;;;;8.07;6.55;;;;;;;;;;5034102;28;20045;-64
2023/07/13 05:55:04;;;;;;;9.50;5.63;;;;;;;;;;5033352;28;20034;-65
2023/07/13 05:57:29;;;;;;;8.00;5.53;;;;;;;;;;5033721;28;20037;-64
2023/07/13 05:59:55;;;;;;;7.20;4.93;;;;;;;;;;5033695;28;20558;-63
2023/07/13 06:02:20;;;;;;;7.22;5.13;;;;;;;;;;5033599;28;20484;-63
2023/07/13 06:04:45;;;;;;;5.43;4.05;;;;;;;;;;5015709;28;20036;-64
2023/07/13 06:07:11;;;;;;;6.18;4.07;;;;;;;;;;5033575;28;20119;-64
2023/07/13 06:09:36;;;;;;;4.40;4.00;;;;;;;;;;5034171;28;20030;-64
2023/07/13 06:12:01;;;;;;;10.50;4.18;;;;;;;;;;5035817;28;20030;-64
2023/07/13 06:14:27;;;;;;;5.13;3.95;;;;;;;;;;5035523;28;20033;-63
2023/07/13 06:16:52;;;;;;;6.35;4.00;;;;;;;;;;5035403;28;20025;-63
2023/07/13 06:19:17;;;;;;;6.25;4.30;;;;;;;;;;5035141;28;20393;-63
2023/07/13 06:21:43;;;;;;;6.40;3.72;;;;;;;;;;5017397;28;20029;-64
2023/07/13 06:24:08;;;;;;;7.90;3.67;;;;;;;;;;5035690;28;20038;-64
2023/07/13 06:26:33;;;;;;;7.05;4.00;;;;;;;;;;5034651;28;20046;-64
2023/07/13 06:28:59;;;;;;;6.45;4.10;;;;;;;;;;5035303;28;20036;-63
2023/07/13 06:31:24;;;;;;;6.00;3.97;;;;;;;;;;5000941;28;20029;-63
2023/07/13 06:33:49;;;;;;;6.97;3.85;;;;;;;;;;5035157;28;20167;-63
2023/07/13 06:36:15;;;;;;;4.55;3.83;;;;;;;;;;5035099;28;20032;-63
2023/07/13 06:38:40;;;;;;;6.97;4.35;;;;;;;;;;5034821;28;20036;-63
2023/07/13 06:41:06;;;;;;;4.05;3.63;;;;;;;;;;5035062;28;20084;-63
2023/07/13 06:43:31;;;;;;;5.40;4.15;;;;;;;;;;5034722;28;20105;-63
2023/07/13 06:45:57;;;;;;;8.95;4.20;;;;;;;;;;5034601;28;20118;-63
2023/07/13 06:48:23;;;;;;;7.47;3.88;;;;;;;;;;5034874;28;20030;-63
2023/07/13 06:50:49;;;;;;;5.38;3.95;;;;;;;;;;5034599;28;20461;-63
2023/07/13 06:53:15;;;;;;;5.45;4.28;;;;;;;;;;5034580;28;20025;-63
2023/07/13 06:55:40;;;;;;;5.43;3.90;;;;;;;;;;5034796;28;20033;-63
2023/07/13 06:58:06;;;;;;;6.07;4.00;;;;;;;;;;5034452;28;20443;-63
2023/07/13 07:00:31;;;;;;;7.00;4.22;;;;;;;;;;5034406;28;20091;-63
2023/07/13 07:02:56;;;;;;;5.85;4.28;;;;;;;;;;5034268;28;20046;-63
2023/07/13 07:05:22;;;;;;;4.38;3.92;;;;;;;;;;5033729;28;20029;-64
2023/07/13 07:07:51;;;;;;;4.38;4.03;;;;;;;;;;5034571;28;20029;-64
2023/07/13 07:10:16;;;;;;;9.07;4.57;;;;;;;;;;5034568;28;20025;-64
2023/07/13 07:12:42;;;;;;;7.38;4.70;;;;;;;;;;5034205;28;20026;-64
2023/07/13 07:15:07;;;;;;;4.45;4.03;;;;;;;;;;5034442;28;20018;-63
2023/07/13 07:17:33;;;;;;;4.57;4.05;;;;;;;;;;5034086;28;20111;-63
2023/07/13 07:19:58;;;;;;;5.18;4.35;;;;;;;;;;5034087;28;20025;-63
2023/07/13 07:22:26;;;;;;;5.88;4.20;;;;;;;;;;5034289;28;20029;-63
2023/07/13 07:24:52;;;;;;;5.72;4.07;;;;;;;;;;5033904;28;20091;-63
2023/07/13 07:27:17;;;;;;;4.57;4.05;;;;;;;;;;5033837;28;20042;-63
2023/07/13 07:29:42;;;;;;;4.60;3.83;;;;;;;;;;5034198;28;20030;-63
2023/07/13 07:32:08;;;;;;;5.80;3.72;;;;;;;;;;5033859;28;20520;-63
2023/07/13 07:34:33;;;;;;;5.75;3.92;;;;;;;;;;5033854;28;20484;-63
2023/07/13 07:36:59;;;;;;;4.10;3.22;;;;;;;;;;5034070;28;20036;-63
2023/07/13 07:39:24;;;;;;;5.13;4.63;;;;;;;;;;5033783;28;20087;-63
2023/07/13 07:41:49;;;;;;;4.70;3.63;;;;;;;;;;5034056;28;20029;-63
2023/07/13 07:44:15;;;;;;;4.85;3.40;;;;;;;;;;5034165;28;20125;-63
2023/07/13 07:46:40;;;;;;;4.82;3.40;;;;;;;;;;5033708;28;20061;-64
2023/07/13 07:49:06;;;;;;;3.72;3.25;;;;;;;;;;5033944;28;20030;-64
2023/07/13 07:51:31;;;;;;;3.65;3.35;;;;;;;;;;5033907;28;20033;-64
2023/07/13 07:53:56;;;;;;;3.60;3.30;;;;;;;;;;5034181;28;20026;-64
2023/07/13 07:56:22;;;;;;;3.40;2.92;;;;;;;;;;5033767;28;20021;-64
2023/07/13 07:58:47;;;;;;;4.35;3.53;;;;;;;;;;5033558;28;20487;-64
2023/07/13 08:01:13;;;;;;;2.97;2.75;;;;;;;;;;5015855;28;20104;-63
2023/07/13 08:03:39;;;;;;;4.72;3.17;;;;;;;;;;5033803;28;20038;-63
2023/07/13 08:06:04;;;;;;;3.85;3.13;;;;;;;;;;5033957;28;20029;-63
2023/07/13 08:08:29;;;;;;;3.58;3.28;;;;;;;;;;5033473;28;20029;-63
2023/07/13 08:10:54;;;;;;;3.42;3.22;;;;;;;;;;5033987;28;20034;-63
2023/07/13 08:13:20;;;;;;;3.30;3.10;;;;;;;;;;5016346;28;20022;-63
2023/07/13 08:15:46;;;;;;;3.78;3.47;;;;;;;;;;5033410;28;20420;-63
2023/07/13 08:18:11;;;;;;;5.20;3.40;;;;;;;;;;5019014;28;20035;-63
2023/07/13 08:20:38;;;;;;;3.63;3.33;;;;;;;;;;5019690;28;20468;-63
2023/07/13 08:23:03;;;;;;;3.65;3.28;;;;;;;;;;5037385;28;20060;-63
2023/07/13 08:25:28;;;;;;;3.33;3.03;;;;;;;;;;5037096;28;20072;-63
2023/07/13 08:27:54;;;;;;;3.20;3.00;;;;;;;;;;5019913;28;20025;-63
2023/07/13 08:30:19;;;;;;;4.25;3.45;;;;;;;;;;5037239;28;20037;-64
2023/07/13 08:32:44;;;;;;;3.50;3.20;;;;;;;;;;5037209;28;20029;-64
2023/07/13 08:35:10;;;;;;;3.55;3.00;;;;;;;;;;5037969;28;20538;-64
2023/07/13 08:37:35;;;;;;;3.53;3.22;;;;;;;;;;5037083;28;20139;-64
2023/07/13 08:40:00;;;;;;;3.80;3.30;;;;;;;;;;5037062;28;20088;-64
2023/07/13 08:42:25;;;;;;;4.20;2.90;;;;;;;;;;5019430;28;20021;-64
2023/07/13 08:45:03;;;;;;;3.38;3.15;;;;;;;;;;5037187;28;20064;-64
2023/07/13 08:47:30;;;;;;;3.30;3.08;;;;;;;;;;5036948;28;20044;-64
2023/07/13 08:49:57;;;;;;;3.40;3.20;;;;;;;;;;5036931;28;20452;-64
2023/07/13 08:52:25;;;;;;;3.35;3.15;;;;;;;;;;5036795;28;20044;-64
2023/07/13 08:54:52;;;;;;;18.42;5.40;;;;;;;;;;5036786;28;20037;-64
2023/07/13 08:57:24;;;;;;;14.05;5.93;;;;;;;;;;5002748;28;20073;-63
2023/07/13 08:59:50;;;;;;;8.27;4.20;;;;;;;;;;5036931;28;20116;-63
2023/07/13 09:02:22;;;;;;;3.50;3.20;;;;;;;;;;5036994;28;20113;-63
2023/07/13 09:04:50;;;;;;;134.20;25.52;;;;;;;;;;5036831;28;20079;-63
2023/07/13 09:07:29;;;;;;;45.45;18.67;;;;;;;;;;5036517;28;20413;-63
2023/07/13 09:10:03;;;;;;;5.20;3.55;;;;;;;;;;5018728;28;20449;-64
2023/07/13 09:12:35;;;;;;;3.95;3.60;;;;;;;;;;5036468;28;20120;-64
2023/07/13 09:15:04;;;;;;;5.97;3.50;;;;;;;;;;5036661;28;20031;-64
2023/07/13 09:17:50;;;;;;;4.07;3.67;;;;;;;;;;5036382;28;20056;-64
2023/07/13 09:20:28;;;;;;;3.88;3.58;;;;;;;;;;5036179;28;20049;-64
2023/07/13 09:22:53;;;;;;;4.50;3.50;;;;;;;;;;5036664;28;20060;-63
2023/07/13 09:25:21;;;;;;;5.47;4.15;;;;;;;;;;5034198;28;20532;-63
2023/07/13 09:27:47;;;;;;;41.90;14.43;;;;;;;;;;5034756;28;20038;-63
2023/07/13 09:30:12;;;;;;;26.05;9.23;;;;;;;;;;5035532;28;20032;-63
2023/07/13 09:32:39;;;;;;;10.85;4.97;;;;;;;;;;5034930;28;20392;-63
2023/07/13 09:35:11;;;;;;;19.98;7.95;;;;;;;;;;5034774;28;20095;-63
2023/07/13 09:37:37;;;;;;;7.93;4.90;;;;;;;;;;5036311;28;20037;-63
2023/07/13 09:40:04;;;;;;;6.47;4.55;;;;;;;;;;5036239;28;20037;-63
2023/07/13 09:42:31;;;;;;;10.52;5.28;;;;;;;;;;5035913;28;20037;-63
2023/07/13 09:44:58;;;;;;;6.55;3.90;;;;;;;;;;5034921;28;20033;-63
2023/07/13 09:47:26;;;;;;;11.32;5.35;;;;;;;;;;5034948;28;20022;-63
2023/07/13 09:49:58;;;;;;;4.30;3.90;;;;;;;;;;5034896;28;20080;-63
2023/07/13 09:52:26;;;;;;;4.30;3.90;;;;;;;;;;5036000;28;20461;-63
2023/07/13 09:54:53;;;;;;;4.20;3.58;;;;;;;;;;5035734;28;20517;-64
2023/07/13 09:57:22;;;;;;;4.45;3.75;;;;;;;;;;5034391;28;20396;-63
2023/07/13 09:59:48;;;;;;;3.72;3.42;;;;;;;;;;5035865;28;20044;-63
2023/07/13 10:02:29;;;;;;;3.75;3.55;;;;;;;;;;5035529;28;20065;-63
2023/07/13 10:04:59;;;;;;;7.00;4.18;;;;;;;;;;5035932;28;20515;-63
2023/07/13 10:07:25;;;;;;;4.45;3.42;;;;;;;;;;5035740;28;20032;-63
2023/07/13 10:09:54;;;;;;;4.10;3.80;;;;;;;;;;5035410;28;20065;-63
2023/07/13 10:12:20;;;;;;;4.80;4.30;;;;;;;;;;5034447;28;20039;-63
2023/07/13 10:14:46;;;;;;;4.95;4.20;;;;;;;;;;5035893;28;20030;-63
2023/07/13 10:17:13;;;;;;;9.07;5.50;;;;;;;;;;5035566;28;20037;-63
2023/07/13 10:19:41;;;;;;;8.10;4.78;;;;;;;;;;5033945;28;20028;-63
2023/07/13 10:22:18;;;;;;;8.05;4.72;;;;;;;;;;5035164;28;20041;-63
2023/07/13 10:24:44;;;;;;;4.72;4.07;;;;;;;;;;5034885;28;20044;-63
2023/07/13 10:27:09;;;;;;;4.38;4.00;;;;;;;;;;5035374;28;20040;-63
2023/07/13 10:29:36;;;;;;;5.25;4.35;;;;;;;;;;5035282;28;20041;-63
2023/07/13 10:32:04;;;;;;;5.50;4.15;;;;;;;;;;5034995;28;20021;-63
2023/07/13 10:34:31;;;;;;;4.70;4.00;;;;;;;;;;5033672;28;20059;-63
2023/07/13 10:36:56;;;;;;;3.88;3.58;;;;;;;;;;5035229;28;20104;-63
2023/07/13 10:39:25;;;;;;;3.63;3.33;;;;;;;;;;5034842;28;20127;-63
2023/07/13 10:41:53;;;;;;;4.07;3.63;;;;;;;;;;5033673;28;20494;-63
2023/07/13 10:44:28;;;;;;;3.97;2.65;;;;;;;;;;5034733;28;20033;-63
2023/07/13 10:47:13;;;;;;;2.60;2.35;;;;;;;;;;5034989;28;20468;-63
2023/07/13 10:49:40;;;;;;;3.08;2.10;;;;;;;;;;5034947;28;20025;-63
2023/07/13 10:52:06;;;;;;;1.92;1.83;;;;;;;;;;5034935;28;20380;-63
2023/07/13 10:54:31;;;;;;;4.25;2.33;;;;;;;;;;5034830;28;20032;-63
2023/07/13 10:57:16;;;;;;;2.05;1.95;;;;;;;;;;5034577;28;20554;-63
2023/07/13 10:59:42;;;;;;;1.88;1.48;;;;;;;;;;5034736;28;20044;-63
2023/07/13 11:02:14;;;;;;;1.70;1.60;;;;;;;;;;5034696;28;20029;-63
2023/07/13 11:04:42;;;;;;;1.98;1.88;;;;;;;;;;5034858;28;20049;-63
2023/07/13 11:07:11;;;;;;;1.60;1.50;;;;;;;;;;5034637;28;20021;-63
2023/07/13 11:09:40;;;;;;;2.47;1.67;;;;;;;;;;5033202;28;20120;-63
2023/07/13 11:12:08;;;;;;;1.95;1.85;;;;;;;;;;5034572;28;20260;-63
2023/07/13 11:14:38;;;;;;;4.07;1.60;;;;;;;;;;5034751;28;20487;-63
2023/07/13 11:17:22;;;;;;;1.27;1.25;;;;;;;;;;5034144;28;20033;-63
2023/07/13 11:19:50;;;;;;;2.15;1.50;;;;;;;;;;5033224;28;20531;-64
2023/07/13 11:22:16;;;;;;;2.10;1.33;;;;;;;;;;5034112;28;20100;-64
2023/07/13 11:24:52;;;;;;;3.30;1.48;;;;;;;;;;5033797;28;20052;-64
2023/07/13 11:27:38;;;;;;;3.22;1.40;;;;;;;;;;5034292;28;20059;-64
2023/07/13 11:30:20;;;;;;;1.30;1.20;;;;;;;;;;5033949;28;20021;-64
2023/07/13 11:32:49;;;;;;;3.20;1.60;;;;;;;;;;5034196;28;20026;-63
2023/07/13 11:35:17;;;;;;;1.80;1.40;;;;;;;;;;5033899;28;20033;-63
2023/07/13 11:37:44;;;;;;;1.67;1.35;;;;;;;;;;5034138;28;20033;-63
2023/07/13 11:40:14;;;;;;;1.50;1.30;;;;;;;;;;5034080;28;20450;-63
2023/07/13 11:42:39;;;;;;;1.33;1.23;;;;;;;;;;5033120;28;20107;-64
2023/07/13 11:45:18;;;;;;;3.20;1.10;;;;;;;;;;5033680;28;20436;-64
2023/07/13 11:47:43;;;;;;;1.13;1.00;;;;;;;;;;5033991;28;20025;-64
2023/07/13 11:50:17;;;;;;;1.33;1.15;;;;;;;;;;5033710;28;20496;-64
2023/07/13 11:52:43;;;;;;;1.23;1.00;;;;;;;;;;5033240;28;20030;-64
2023/07/13 11:55:18;;;;;;;0.98;0.98;;;;;;;;;;5033909;28;20033;-63
2023/07/13 11:57:49;;;;;;;3.25;1.58;;;;;;;;;;5033902;28;20033;-63
2023/07/13 12:00:22;;;;;;;1.58;1.10;;;;;;;;;;5032423;28;20469;-64
2023/07/13 12:02:50;;;;;;;1.33;1.23;;;;;;;;;;5033576;28;20061;-64
2023/07/13 12:05:17;;;;;;;1.23;1.08;;;;;;;;;;5033767;28;20039;-64
2023/07/13 12:07:43;;;;;;;1.83;1.10;;;;;;;;;;5033782;28;20393;-64
2023/07/13 12:10:09;;;;;;;1.50;1.30;;;;;;;;;;5033526;28;20021;-64
2023/07/13 12:12:37;;;;;;;1.58;1.33;;;;;;;;;;5033751;28;20401;-64
2023/07/13 12:15:06;;;;;;;2.42;1.20;;;;;;;;;;5032215;28;20456;-64
2023/07/13 12:17:31;;;;;;;1.30;1.20;;;;;;;;;;5033688;28;20037;-64
2023/07/13 12:19:57;;;;;;;1.48;1.10;;;;;;;;;;5033667;28;20037;-64
2023/07/13 12:22:22;;;;;;;1.98;1.00;;;;;;;;;;5033638;28;20025;-64
2023/07/13 12:24:48;;;;;;;1.08;1.02;;;;;;;;;;5033373;28;20044;-64
2023/07/13 12:27:22;;;;;;;2.45;1.20;;;;;;;;;;5032115;28;20382;-63
2023/07/13 12:29:53;;;;;;;1.20;1.20;;;;;;;;;;5032096;28;20028;-64
2023/07/13 12:32:19;;;;;;;1.70;1.60;;;;;;;;;;5033598;28;20460;-64
2023/07/13 12:35:13;;;;;;;1.73;1.60;;;;;;;;;;5033300;28;20029;-64
2023/07/13 12:37:41;;;;;;;1.25;1.17;;;;;;;;;;5024679;28;20049;-64
2023/07/13 12:40:12;;;;;;;1.73;1.60;;;;;;;;;;5033783;28;20456;-64
2023/07/13 12:42:39;;;;;;;1.90;1.80;;;;;;;;;;5033226;28;20025;-63
2023/07/13 12:45:19;;;;;;;1.65;1.55;;;;;;;;;;5033145;28;20033;-63
2023/07/13 12:47:47;;;;;;;2.57;2.07;;;;;;;;;;5033479;28;20029;-64
2023/07/13 12:50:17;;;;;;;2.42;1.95;;;;;;;;;;5033440;28;20263;-64
2023/07/13 12:52:43;;;;;;;2.80;2.45;;;;;;;;;;5033427;28;20515;-64
2023/07/13 12:55:16;;;;;;;2.90;2.05;;;;;;;;;;5033406;28;20060;-64
2023/07/13 12:57:44;;;;;;;2.20;2.00;;;;;;;;;;5033640;28;20526;-63
2023/07/13 13:00:26;;;;;;;1.75;1.65;;;;;;;;;;5033094;28;20061;-63
2023/07/13 13:02:52;;;;;;;2.15;1.95;;;;;;;;;;5031781;28;20037;-64
2023/07/13 13:05:17;;;;;;;3.30;2.38;;;;;;;;;;5036281;28;20030;-64
2023/07/13 13:07:46;;;;;;;2.15;2.03;;;;;;;;;;5035391;28;20036;-64
2023/07/13 13:10:14;;;;;;;2.10;2.00;;;;;;;;;;5036663;28;20029;-63
2023/07/13 13:12:42;;;;;;;3.17;2.15;;;;;;;;;;5035961;28;20026;-63
2023/07/13 13:15:08;;;;;;;2.65;2.10;;;;;;;;;;5036180;28;20041;-64
2023/07/13 13:17:34;;;;;;;2.15;2.05;;;;;;;;;;5035806;28;20022;-64
2023/07/13 13:19:59;;;;;;;4.43;2.47;;;;;;;;;;5036045;28;20567;-64
2023/07/13 13:22:25;;;;;;;2.55;2.20;;;;;;;;;;5036020;28;20470;-64
2023/07/13 13:24:50;;;;;;;2.80;2.60;;;;;;;;;;5035668;28;20041;-64
2023/07/13 13:27:17;;;;;;;2.65;2.20;;;;;;;;;;5035872;28;20018;-64
2023/07/13 13:29:42;;;;;;;2.83;2.40;;;;;;;;;;5035899;28;20021;-64
2023/07/13 13:32:11;;;;;;;2.22;1.95;;;;;;;;;;5035869;28;20495;-64
2023/07/13 13:34:36;;;;;;;3.47;2.53;;;;;;;;;;5035864;28;20033;-64
2023/07/13 13:37:02;;;;;;;2.10;2.00;;;;;;;;;;5035573;28;20036;-63
2023/07/13 13:39:27;;;;;;;2.40;2.20;;;;;;;;;;5035583;28;20038;-64
2023/07/13 13:41:53;;;;;;;2.65;2.45;;;;;;;;;;5035693;28;20030;-64
2023/07/13 13:44:19;;;;;;;2.10;2.00;;;;;;;;;;5035212;28;20025;-64
2023/07/13 13:46:46;;;;;;;2.22;2.13;;;;;;;;;;5033561;28;20048;-64
2023/07/13 13:49:16;;;;;;;2.70;2.50;;;;;;;;;;5034794;28;20068;-64
2023/07/13 13:51:41;;;;;;;;;;;;;;;;;;5035194;28;20087;-64
2023/07/13 13:54:10;;;;;;;4.37;2.70;;;;;;;;;;5034424;28;19909;-64
2023/07/13 13:56:36;;;;;;;2.70;2.50;;;;;;;;;;5031896;28;20059;-64
2023/07/13 13:59:01;;;;;;;2.45;2.25;;;;;;;;;;5033960;28;20469;-63
2023/07/13 14:01:28;;;;;;;2.45;2.30;;;;;;;;;;5034267;28;20022;-64
2023/07/13 14:03:53;;;;;;;2.95;2.53;;;;;;;;;;5034160;28;20171;-64
2023/07/13 14:06:18;;;;;;;2.60;2.40;;;;;;;;;;5016347;28;20124;-64
2023/07/13 14:08:44;;;;;;;3.35;2.88;;;;;;;;;;5033019;28;20083;-64
2023/07/13 14:11:17;;;;;;;2.83;2.63;;;;;;;;;;5033180;28;20021;-64
2023/07/13 14:13:44;;;;;;;3.17;2.95;;;;;;;;;;5032814;28;20034;-64
2023/07/13 14:16:11;;;;;;;2.92;2.72;;;;;;;;;;5033670;28;20366;-64
2023/07/13 14:18:37;;;;;;;2.80;2.70;;;;;;;;;;5033866;28;20032;-64
2023/07/13 14:21:02;;;;;;;3.10;2.80;;;;;;;;;;5032657;28;20107;-64
2023/07/13 14:23:27;;;;;;;3.67;2.60;;;;;;;;;;5034192;28;20061;-64
2023/07/13 14:25:53;;;;;;;2.85;2.65;;;;;;;;;;5033557;28;20462;-64
2023/07/13 14:28:24;;;;;;;5.75;3.03;;;;;;;;;;5032511;28;20026;-64
2023/07/13 14:30:49;;;;;;;3.35;2.67;;;;;;;;;;5016212;28;20036;-64
2023/07/13 14:33:15;;;;;;;3.00;2.80;;;;;;;;;;5033591;28;20397;-64
2023/07/13 14:35:42;;;;;;;2.72;2.53;;;;;;;;;;5033724;28;20030;-64
2023/07/13 14:38:10;;;;;;;2.80;2.60;;;;;;;;;;5032058;28;20032;-64
2023/07/13 14:40:35;;;;;;;3.50;3.03;;;;;;;;;;5032261;28;20472;-64
2023/07/13 14:43:14;;;;;;;2.65;2.55;;;;;;;;;;5034523;28;20028;-64